sensor_id;sensor_type;location;lat;lon;timestamp;temperature;humidity
39899;DHT22;25571;47.876;10.642;2023-03-20T00:01:11;10.20;97.00
39899;DHT22;25571;47.876;10.642;2023-03-20T00:03:37;10.20;96.80
39899;DHT22;25571;47.876;10.642;2023-03-20T00:06:02;10.20;96.80
39899;DHT22;25571;47.876;10.642;2023-03-20T00:08:28;10.20;96.90
39899;DHT22;25571;47.876;10.642;2023-03-20T00:10:53;10.20;96.80
39899;DHT22;25571;47.876;10.642;2023-03-20T00:13:24;10.20;97.00
39899;DHT22;25571;47.876;10.642;2023-03-20T00:15:52;10.20;97.00
39899;DHT22;25571;47.876;10.642;2023-03-20T00:18:20;10.20;97.00
39899;DHT22;25571;47.876;10.642;2023-03-20T00:20:48;10.20;97.20
39899;DHT22;25571;47.876;10.642;2023-03-20T00:23:14;10.20;97.30
39899;DHT22;25571;47.876;10.642;2023-03-20T00:25:40;10.30;97.30
39899;DHT22;25571;47.876;10.642;2023-03-20T00:28:30;10.20;97.30
39899;DHT22;25571;47.876;10.642;2023-03-20T00:31:00;10.20;97.30
39899;DHT22;25571;47.876;10.642;2023-03-20T00:33:26;10.20;97.40
39899;DHT22;25571;47.876;10.642;2023-03-20T00:35:52;10.20;97.40
39899;DHT22;25571;47.876;10.642;2023-03-20T00:38:18;10.20;97.40
39899;DHT22;25571;47.876;10.642;2023-03-20T00:40:43;10.10;97.40
39899;DHT22;25571;47.876;10.642;2023-03-20T00:43:11;10.10;97.50
39899;DHT22;25571;47.876;10.642;2023-03-20T00:45:38;10.10;97.40
39899;DHT22;25571;47.876;10.642;2023-03-20T00:48:04;10.10;97.50
39899;DHT22;25571;47.876;10.642;2023-03-20T00:50:30;10.00;97.70
39899;DHT22;25571;47.876;10.642;2023-03-20T00:52:57;10.00;97.80
39899;DHT22;25571;47.876;10.642;2023-03-20T00:55:25;9.90;97.70
39899;DHT22;25571;47.876;10.642;2023-03-20T00:57:57;9.80;97.70
39899;DHT22;25571;47.876;10.642;2023-03-20T01:00:49;9.90;97.80
39899;DHT22;25571;47.876;10.642;2023-03-20T01:03:18;9.90;98.00
39899;DHT22;25571;47.876;10.642;2023-03-20T01:05:44;10.00;98.00
39899;DHT22;25571;47.876;10.642;2023-03-20T01:08:18;9.90;98.10
39899;DHT22;25571;47.876;10.642;2023-03-20T01:10:45;9.90;98.20
39899;DHT22;25571;47.876;10.642;2023-03-20T01:13:26;9.80;98.20
39899;DHT22;25571;47.876;10.642;2023-03-20T01:15:54;9.80;98.20
39899;DHT22;25571;47.876;10.642;2023-03-20T01:18:21;9.90;98.30
39899;DHT22;25571;47.876;10.642;2023-03-20T01:20:48;9.80;98.30
39899;DHT22;25571;47.876;10.642;2023-03-20T01:23:14;9.70;98.60
39899;DHT22;25571;47.876;10.642;2023-03-20T01:25:40;9.60;98.80
39899;DHT22;25571;47.876;10.642;2023-03-20T01:28:15;9.60;99.10
39899;DHT22;25571;47.876;10.642;2023-03-20T01:30:41;9.60;99.10
39899;DHT22;25571;47.876;10.642;2023-03-20T01:33:21;9.60;99.10
39899;DHT22;25571;47.876;10.642;2023-03-20T01:35:48;9.60;99.00
39899;DHT22;25571;47.876;10.642;2023-03-20T01:38:22;9.50;99.20
39899;DHT22;25571;47.876;10.642;2023-03-20T01:40:56;9.50;99.40
39899;DHT22;25571;47.876;10.642;2023-03-20T01:43:24;9.60;99.40
39899;DHT22;25571;47.876;10.642;2023-03-20T01:51:20;9.60;99.30
39899;DHT22;25571;47.876;10.642;2023-03-20T01:53:56;9.60;99.30
39899;DHT22;25571;47.876;10.642;2023-03-20T01:56:23;9.70;99.20
39899;DHT22;25571;47.876;10.642;2023-03-20T01:58:57;9.60;99.20
39899;DHT22;25571;47.876;10.642;2023-03-20T02:01:26;9.70;99.20
39899;DHT22;25571;47.876;10.642;2023-03-20T02:03:52;9.60;99.10
39899;DHT22;25571;47.876;10.642;2023-03-20T02:06:21;9.60;99.20
39899;DHT22;25571;47.876;10.642;2023-03-20T02:08:49;9.70;99.10
39899;DHT22;25571;47.876;10.642;2023-03-20T02:11:18;9.70;99.10
39899;DHT22;25571;47.876;10.642;2023-03-20T02:13:44;9.60;99.00
39899;DHT22;25571;47.876;10.642;2023-03-20T02:16:12;9.40;99.20
39899;DHT22;25571;47.876;10.642;2023-03-20T02:18:40;9.50;99.40
39899;DHT22;25571;47.876;10.642;2023-03-20T02:26:29;9.20;99.90
39899;DHT22;25571;47.876;10.642;2023-03-20T02:48:32;8.50;99.90
39899;DHT22;25571;47.876;10.642;2023-03-20T02:51:19;8.40;99.90
39899;DHT22;25571;47.876;10.642;2023-03-20T02:53:53;8.50;99.90
39899;DHT22;25571;47.876;10.642;2023-03-20T02:56:31;8.50;99.90
39899;DHT22;25571;47.876;10.642;2023-03-20T03:01:55;8.60;99.90
39899;DHT22;25571;47.876;10.642;2023-03-20T03:04:28;8.60;99.90
39899;DHT22;25571;47.876;10.642;2023-03-20T03:06:58;8.60;99.90
39899;DHT22;25571;47.876;10.642;2023-03-20T03:09:51;8.70;99.90
39899;DHT22;25571;47.876;10.642;2023-03-20T03:12:20;8.60;99.90
39899;DHT22;25571;47.876;10.642;2023-03-20T03:14:50;8.40;99.90
39899;DHT22;25571;47.876;10.642;2023-03-20T03:17:19;8.30;99.90
39899;DHT22;25571;47.876;10.642;2023-03-20T03:19:48;8.20;99.90
39899;DHT22;25571;47.876;10.642;2023-03-20T03:22:15;8.10;99.90
39899;DHT22;25571;47.876;10.642;2023-03-20T03:24:44;8.00;99.90
39899;DHT22;25571;47.876;10.642;2023-03-20T03:27:24;8.00;99.90
39899;DHT22;25571;47.876;10.642;2023-03-20T03:30:18;7.90;99.90
39899;DHT22;25571;47.876;10.642;2023-03-20T03:33:12;7.90;99.90
39899;DHT22;25571;47.876;10.642;2023-03-20T03:35:39;7.80;99.90
39899;DHT22;25571;47.876;10.642;2023-03-20T03:40:48;7.70;99.90
39899;DHT22;25571;47.876;10.642;2023-03-20T03:43:27;7.70;99.90
39899;DHT22;25571;47.876;10.642;2023-03-20T03:46:02;7.60;99.90
39899;DHT22;25571;47.876;10.642;2023-03-20T03:48:34;7.60;99.90
39899;DHT22;25571;47.876;10.642;2023-03-20T03:51:06;7.70;99.90
39899;DHT22;25571;47.876;10.642;2023-03-20T03:53:37;7.70;99.90
39899;DHT22;25571;47.876;10.642;2023-03-20T03:56:07;7.60;99.90
39899;DHT22;25571;47.876;10.642;2023-03-20T03:58:36;7.70;99.90
39899;DHT22;25571;47.876;10.642;2023-03-20T04:01:04;7.70;99.90
39899;DHT22;25571;47.876;10.642;2023-03-20T04:03:35;7.80;99.90
39899;DHT22;25571;47.876;10.642;2023-03-20T04:06:03;7.80;99.90
39899;DHT22;25571;47.876;10.642;2023-03-20T04:08:30;7.80;99.90
39899;DHT22;25571;47.876;10.642;2023-03-20T04:10:55;7.80;99.90
39899;DHT22;25571;47.876;10.642;2023-03-20T04:13:21;7.80;99.90
39899;DHT22;25571;47.876;10.642;2023-03-20T04:15:46;7.90;99.90
39899;DHT22;25571;47.876;10.642;2023-03-20T04:18:16;7.80;99.90
39899;DHT22;25571;47.876;10.642;2023-03-20T04:20:43;7.80;99.90
39899;DHT22;25571;47.876;10.642;2023-03-20T04:23:09;7.80;99.90
39899;DHT22;25571;47.876;10.642;2023-03-20T04:25:35;7.80;99.90
39899;DHT22;25571;47.876;10.642;2023-03-20T04:28:01;7.80;99.90
39899;DHT22;25571;47.876;10.642;2023-03-20T04:30:27;7.80;99.90
39899;DHT22;25571;47.876;10.642;2023-03-20T04:32:52;7.90;99.90
39899;DHT22;25571;47.876;10.642;2023-03-20T04:35:18;7.90;99.90
39899;DHT22;25571;47.876;10.642;2023-03-20T04:37:43;8.00;99.90
39899;DHT22;25571;47.876;10.642;2023-03-20T04:40:10;8.00;99.90
39899;DHT22;25571;47.876;10.642;2023-03-20T04:42:35;8.10;99.90
39899;DHT22;25571;47.876;10.642;2023-03-20T04:45:01;8.20;99.90
39899;DHT22;25571;47.876;10.642;2023-03-20T04:47:27;8.30;99.90
39899;DHT22;25571;47.876;10.642;2023-03-20T04:49:52;8.30;99.90
39899;DHT22;25571;47.876;10.642;2023-03-20T04:52:18;8.50;99.90
39899;DHT22;25571;47.876;10.642;2023-03-20T04:54:43;8.40;99.90
39899;DHT22;25571;47.876;10.642;2023-03-20T04:57:09;8.50;99.90
39899;DHT22;25571;47.876;10.642;2023-03-20T04:59:34;8.50;99.90
39899;DHT22;25571;47.876;10.642;2023-03-20T05:02:00;8.50;99.90
39899;DHT22;25571;47.876;10.642;2023-03-20T05:04:25;8.50;99.90
39899;DHT22;25571;47.876;10.642;2023-03-20T05:06:52;8.60;99.90
39899;DHT22;25571;47.876;10.642;2023-03-20T05:09:17;8.70;99.90
39899;DHT22;25571;47.876;10.642;2023-03-20T05:11:43;8.70;99.90
39899;DHT22;25571;47.876;10.642;2023-03-20T05:14:09;8.70;99.90
39899;DHT22;25571;47.876;10.642;2023-03-20T05:16:36;8.70;99.90
39899;DHT22;25571;47.876;10.642;2023-03-20T05:19:02;8.70;99.90
39899;DHT22;25571;47.876;10.642;2023-03-20T05:21:27;8.80;99.90
39899;DHT22;25571;47.876;10.642;2023-03-20T05:23:53;8.70;99.90
39899;DHT22;25571;47.876;10.642;2023-03-20T05:26:19;8.70;99.90
39899;DHT22;25571;47.876;10.642;2023-03-20T05:28:44;8.70;99.90
39899;DHT22;25571;47.876;10.642;2023-03-20T05:31:10;8.80;99.90
39899;DHT22;25571;47.876;10.642;2023-03-20T05:33:36;8.90;99.90
39899;DHT22;25571;47.876;10.642;2023-03-20T05:36:01;8.90;99.90
39899;DHT22;25571;47.876;10.642;2023-03-20T05:38:28;9.00;99.90
39899;DHT22;25571;47.876;10.642;2023-03-20T05:40:56;8.90;99.90
39899;DHT22;25571;47.876;10.642;2023-03-20T05:43:22;9.00;99.90
39899;DHT22;25571;47.876;10.642;2023-03-20T05:45:47;9.00;99.90
39899;DHT22;25571;47.876;10.642;2023-03-20T05:48:13;9.10;99.90
39899;DHT22;25571;47.876;10.642;2023-03-20T05:50:38;9.10;99.90
39899;DHT22;25571;47.876;10.642;2023-03-20T05:53:04;9.10;99.90
39899;DHT22;25571;47.876;10.642;2023-03-20T05:55:30;9.20;99.90
39899;DHT22;25571;47.876;10.642;2023-03-20T05:57:57;9.20;99.90
39899;DHT22;25571;47.876;10.642;2023-03-20T06:00:23;9.20;99.90
39899;DHT22;25571;47.876;10.642;2023-03-20T06:02:49;9.20;99.90
39899;DHT22;25571;47.876;10.642;2023-03-20T06:05:14;9.30;99.90
39899;DHT22;25571;47.876;10.642;2023-03-20T06:07:40;9.30;99.90
39899;DHT22;25571;47.876;10.642;2023-03-20T06:10:06;9.40;99.90
39899;DHT22;25571;47.876;10.642;2023-03-20T06:12:32;9.30;99.90
39899;DHT22;25571;47.876;10.642;2023-03-20T06:14:57;9.40;99.90
39899;DHT22;25571;47.876;10.642;2023-03-20T06:17:23;9.40;99.90
39899;DHT22;25571;47.876;10.642;2023-03-20T06:19:48;9.50;99.90
39899;DHT22;25571;47.876;10.642;2023-03-20T06:22:14;9.50;99.90
39899;DHT22;25571;47.876;10.642;2023-03-20T06:24:40;9.50;99.90
39899;DHT22;25571;47.876;10.642;2023-03-20T06:27:05;9.70;99.90
39899;DHT22;25571;47.876;10.642;2023-03-20T06:29:31;9.80;99.90
39899;DHT22;25571;47.876;10.642;2023-03-20T06:31:57;9.90;99.90
39899;DHT22;25571;47.876;10.642;2023-03-20T06:34:22;10.10;99.90
39899;DHT22;25571;47.876;10.642;2023-03-20T06:36:48;10.70;99.90
39899;DHT22;25571;47.876;10.642;2023-03-20T06:39:13;10.80;99.90
39899;DHT22;25571;47.876;10.642;2023-03-20T06:41:39;10.90;99.80
39899;DHT22;25571;47.876;10.642;2023-03-20T06:44:04;11.10;99.40
39899;DHT22;25571;47.876;10.642;2023-03-20T06:46:30;11.10;99.00
39899;DHT22;25571;47.876;10.642;2023-03-20T06:48:56;11.00;98.80
39899;DHT22;25571;47.876;10.642;2023-03-20T06:51:21;11.00;98.90
39899;DHT22;25571;47.876;10.642;2023-03-20T06:53:47;11.00;98.90
39899;DHT22;25571;47.876;10.642;2023-03-20T06:56:12;10.90;99.00
39899;DHT22;25571;47.876;10.642;2023-03-20T06:58:38;10.80;99.00
39899;DHT22;25571;47.876;10.642;2023-03-20T07:01:12;10.70;99.10
39899;DHT22;25571;47.876;10.642;2023-03-20T07:03:39;10.60;99.30
39899;DHT22;25571;47.876;10.642;2023-03-20T07:06:05;10.70;99.10
39899;DHT22;25571;47.876;10.642;2023-03-20T07:08:32;14.30;97.10
39899;DHT22;25571;47.876;10.642;2023-03-20T07:10:58;18.30;89.80
39899;DHT22;25571;47.876;10.642;2023-03-20T07:13:24;19.80;71.00
39899;DHT22;25571;47.876;10.642;2023-03-20T07:15:50;18.70;72.10
39899;DHT22;25571;47.876;10.642;2023-03-20T07:18:17;21.70;70.20
39899;DHT22;25571;47.876;10.642;2023-03-20T07:20:43;25.20;56.20
39899;DHT22;25571;47.876;10.642;2023-03-20T07:23:08;22.80;55.50
39899;DHT22;25571;47.876;10.642;2023-03-20T07:25:35;20.50;60.90
39899;DHT22;25571;47.876;10.642;2023-03-20T07:28:00;19.00;65.70
39899;DHT22;25571;47.876;10.642;2023-03-20T07:30:26;18.20;68.90
39899;DHT22;25571;47.876;10.642;2023-03-20T07:32:52;21.80;60.70
39899;DHT22;25571;47.876;10.642;2023-03-20T07:35:18;21.50;58.00
39899;DHT22;25571;47.876;10.642;2023-03-20T07:37:43;22.10;58.70
39899;DHT22;25571;47.876;10.642;2023-03-20T07:40:10;26.00;52.60
39899;DHT22;25571;47.876;10.642;2023-03-20T07:42:35;23.70;52.60
39899;DHT22;25571;47.876;10.642;2023-03-20T07:45:01;21.50;57.40
39899;DHT22;25571;47.876;10.642;2023-03-20T07:47:27;19.50;61.30
39899;DHT22;25571;47.876;10.642;2023-03-20T07:49:52;18.40;65.40
39899;DHT22;25571;47.876;10.642;2023-03-20T07:52:18;17.70;67.70
39899;DHT22;25571;47.876;10.642;2023-03-20T07:54:43;17.10;69.50
39899;DHT22;25571;47.876;10.642;2023-03-20T07:57:10;16.50;71.40
39899;DHT22;25571;47.876;10.642;2023-03-20T07:59:36;15.90;72.80
39899;DHT22;25571;47.876;10.642;2023-03-20T08:02:02;15.40;74.40
39899;DHT22;25571;47.876;10.642;2023-03-20T08:04:27;15.10;75.70
39899;DHT22;25571;47.876;10.642;2023-03-20T08:06:53;14.90;76.30
39899;DHT22;25571;47.876;10.642;2023-03-20T08:09:18;14.70;77.00
39899;DHT22;25571;47.876;10.642;2023-03-20T08:11:44;14.70;78.10
39899;DHT22;25571;47.876;10.642;2023-03-20T08:14:10;14.70;78.80
39899;DHT22;25571;47.876;10.642;2023-03-20T08:16:36;14.90;78.20
39899;DHT22;25571;47.876;10.642;2023-03-20T08:19:02;15.40;76.90
39899;DHT22;25571;47.876;10.642;2023-03-20T08:21:31;21.80;67.10
39899;DHT22;25571;47.876;10.642;2023-03-20T08:23:57;21.70;57.20
39899;DHT22;25571;47.876;10.642;2023-03-20T08:26:23;20.40;61.10
39899;DHT22;25571;47.876;10.642;2023-03-20T08:28:49;18.90;62.40
39899;DHT22;25571;47.876;10.642;2023-03-20T08:31:15;17.80;67.10
39899;DHT22;25571;47.876;10.642;2023-03-20T08:33:45;16.90;69.90
39899;DHT22;25571;47.876;10.642;2023-03-20T08:36:11;16.30;70.70
39899;DHT22;25571;47.876;10.642;2023-03-20T08:38:37;15.80;73.10
39899;DHT22;25571;47.876;10.642;2023-03-20T08:41:05;15.40;74.90
39899;DHT22;25571;47.876;10.642;2023-03-20T08:43:31;15.50;75.10
39899;DHT22;25571;47.876;10.642;2023-03-20T08:45:56;18.00;71.30
39899;DHT22;25571;47.876;10.642;2023-03-20T08:48:22;18.10;68.00
39899;DHT22;25571;47.876;10.642;2023-03-20T08:50:48;27.60;53.40
39899;DHT22;25571;47.876;10.642;2023-03-20T08:53:13;28.10;49.00
39899;DHT22;25571;47.876;10.642;2023-03-20T08:55:39;31.10;42.20
39899;DHT22;25571;47.876;10.642;2023-03-20T08:58:04;26.90;44.30
39899;DHT22;25571;47.876;10.642;2023-03-20T09:00:30;24.80;47.20
39899;DHT22;25571;47.876;10.642;2023-03-20T09:02:56;22.50;51.70
39899;DHT22;25571;47.876;10.642;2023-03-20T09:05:22;20.90;55.10
39899;DHT22;25571;47.876;10.642;2023-03-20T09:07:47;19.60;57.10
39899;DHT22;25571;47.876;10.642;2023-03-20T09:10:13;18.50;59.60
39899;DHT22;25571;47.876;10.642;2023-03-20T09:12:39;17.80;62.70
39899;DHT22;25571;47.876;10.642;2023-03-20T09:15:05;19.10;62.20
39899;DHT22;25571;47.876;10.642;2023-03-20T09:17:31;18.20;61.10
39899;DHT22;25571;47.876;10.642;2023-03-20T09:19:57;17.30;64.00
39899;DHT22;25571;47.876;10.642;2023-03-20T09:22:23;16.70;66.40
39899;DHT22;25571;47.876;10.642;2023-03-20T09:24:48;16.10;68.20
39899;DHT22;25571;47.876;10.642;2023-03-20T09:27:14;15.80;70.40
39899;DHT22;25571;47.876;10.642;2023-03-20T09:29:40;15.50;70.10
39899;DHT22;25571;47.876;10.642;2023-03-20T09:32:08;15.10;72.10
39899;DHT22;25571;47.876;10.642;2023-03-20T09:34:35;14.80;73.00
39899;DHT22;25571;47.876;10.642;2023-03-20T09:37:00;14.70;73.20
39899;DHT22;25571;47.876;10.642;2023-03-20T09:39:27;14.80;73.30
39899;DHT22;25571;47.876;10.642;2023-03-20T09:41:53;20.00;65.60
39899;DHT22;25571;47.876;10.642;2023-03-20T09:47:31;20.40;56.60
39899;DHT22;25571;47.876;10.642;2023-03-20T09:50:16;25.60;47.40
39899;DHT22;25571;47.876;10.642;2023-03-20T09:55:21;25.20;45.10
39899;DHT22;25571;47.876;10.642;2023-03-20T09:57:58;23.80;48.80
39899;DHT22;25571;47.876;10.642;2023-03-20T10:00:28;22.00;51.20
39899;DHT22;25571;47.876;10.642;2023-03-20T10:03:00;20.70;53.80
39899;DHT22;25571;47.876;10.642;2023-03-20T10:05:29;19.80;56.00
39899;DHT22;25571;47.876;10.642;2023-03-20T10:07:59;19.20;56.90
39899;DHT22;25571;47.876;10.642;2023-03-20T10:13:14;18.90;57.50
39899;DHT22;25571;47.876;10.642;2023-03-20T10:16:36;18.50;58.80
39899;DHT22;25571;47.876;10.642;2023-03-20T10:18:48;17.90;59.90
39899;DHT22;25571;47.876;10.642;2023-03-20T10:21:20;17.50;59.90
39899;DHT22;25571;47.876;10.642;2023-03-20T10:24:02;17.50;59.80
39899;DHT22;25571;47.876;10.642;2023-03-20T10:26:34;17.10;60.40
39899;DHT22;25571;47.876;10.642;2023-03-20T10:29:04;16.70;61.40
39899;DHT22;25571;47.876;10.642;2023-03-20T10:31:42;16.90;62.60
39899;DHT22;25571;47.876;10.642;2023-03-20T10:37:13;17.30;60.00
39899;DHT22;25571;47.876;10.642;2023-03-20T10:39:53;17.50;60.10
39899;DHT22;25571;47.876;10.642;2023-03-20T10:42:26;17.70;59.00
39899;DHT22;25571;47.876;10.642;2023-03-20T10:45:14;17.80;58.60
39899;DHT22;25571;47.876;10.642;2023-03-20T10:47:46;17.40;61.00
39899;DHT22;25571;47.876;10.642;2023-03-20T10:50:38;17.10;61.40
39899;DHT22;25571;47.876;10.642;2023-03-20T10:53:07;17.10;62.20
39899;DHT22;25571;47.876;10.642;2023-03-20T10:55:38;16.80;62.00
39899;DHT22;25571;47.876;10.642;2023-03-20T10:58:18;16.80;62.40
39899;DHT22;25571;47.876;10.642;2023-03-20T11:00:46;16.90;60.20
39899;DHT22;25571;47.876;10.642;2023-03-20T11:03:21;17.10;61.20
39899;DHT22;25571;47.876;10.642;2023-03-20T11:05:52;17.20;60.60
39899;DHT22;25571;47.876;10.642;2023-03-20T11:08:22;17.50;59.90
39899;DHT22;25571;47.876;10.642;2023-03-20T11:10:58;17.80;58.50
39899;DHT22;25571;47.876;10.642;2023-03-20T11:15:53;17.30;59.10
39899;DHT22;25571;47.876;10.642;2023-03-20T11:18:18;17.00;60.20
39899;DHT22;25571;47.876;10.642;2023-03-20T11:20:54;16.70;61.70
39899;DHT22;25571;47.876;10.642;2023-03-20T11:23:25;16.30;62.40
39899;DHT22;25571;47.876;10.642;2023-03-20T11:25:56;16.00;62.90
39899;DHT22;25571;47.876;10.642;2023-03-20T11:28:35;16.00;64.60
39899;DHT22;25571;47.876;10.642;2023-03-20T11:33:31;16.10;64.50
39899;DHT22;25571;47.876;10.642;2023-03-20T11:35:58;16.10;64.00
39899;DHT22;25571;47.876;10.642;2023-03-20T11:38:24;16.30;64.70
39899;DHT22;25571;47.876;10.642;2023-03-20T11:40:50;16.50;64.40
39899;DHT22;25571;47.876;10.642;2023-03-20T11:43:23;16.50;63.50
39899;DHT22;25571;47.876;10.642;2023-03-20T11:45:57;16.30;64.60
39899;DHT22;25571;47.876;10.642;2023-03-20T11:48:26;16.20;66.00
39899;DHT22;25571;47.876;10.642;2023-03-20T11:56:19;15.80;67.20
39899;DHT22;25571;47.876;10.642;2023-03-20T12:01:41;15.80;66.80
39899;DHT22;25571;47.876;10.642;2023-03-20T12:04:14;15.80;67.30
39899;DHT22;25571;47.876;10.642;2023-03-20T12:06:48;16.10;67.60
39899;DHT22;25571;47.876;10.642;2023-03-20T12:09:26;16.30;67.60
39899;DHT22;25571;47.876;10.642;2023-03-20T12:17:50;15.60;69.10
39899;DHT22;25571;47.876;10.642;2023-03-20T12:20:41;15.60;70.10
39899;DHT22;25571;47.876;10.642;2023-03-20T12:28:24;14.90;71.10
39899;DHT22;25571;47.876;10.642;2023-03-20T12:33:20;14.80;69.90
39899;DHT22;25571;47.876;10.642;2023-03-20T12:35:49;14.80;68.70
39899;DHT22;25571;47.876;10.642;2023-03-20T12:38:27;14.60;67.90
39899;DHT22;25571;47.876;10.642;2023-03-20T12:41:42;14.50;68.40
39899;DHT22;25571;47.876;10.642;2023-03-20T13:10:56;14.50;68.10
39899;DHT22;25571;47.876;10.642;2023-03-20T13:16:11;14.20;69.40
39899;DHT22;25571;47.876;10.642;2023-03-20T13:18:56;14.30;70.30
39899;DHT22;25571;47.876;10.642;2023-03-20T13:21:37;14.50;70.00
39899;DHT22;25571;47.876;10.642;2023-03-20T13:24:23;14.50;69.80
39899;DHT22;25571;47.876;10.642;2023-03-20T13:32:49;14.10;70.00
39899;DHT22;25571;47.876;10.642;2023-03-20T13:35:53;14.10;71.00
39899;DHT22;25571;47.876;10.642;2023-03-20T13:38:25;14.30;71.40
39899;DHT22;25571;47.876;10.642;2023-03-20T13:41:04;14.30;70.90
39899;DHT22;25571;47.876;10.642;2023-03-20T13:44:03;14.50;70.30
39899;DHT22;25571;47.876;10.642;2023-03-20T13:46:36;14.70;68.90
39899;DHT22;25571;47.876;10.642;2023-03-20T13:49:12;14.60;68.80
39899;DHT22;25571;47.876;10.642;2023-03-20T13:51:55;14.60;68.80
39899;DHT22;25571;47.876;10.642;2023-03-20T13:57:46;14.80;67.60
39899;DHT22;25571;47.876;10.642;2023-03-20T14:03:28;14.80;67.50
39899;DHT22;25571;47.876;10.642;2023-03-20T14:05:55;14.90;67.50
39899;DHT22;25571;47.876;10.642;2023-03-20T14:13:33;14.90;68.00
39899;DHT22;25571;47.876;10.642;2023-03-20T14:16:02;14.90;67.50
39899;DHT22;25571;47.876;10.642;2023-03-20T14:18:29;15.00;68.10
39899;DHT22;25571;47.876;10.642;2023-03-20T14:21:00;15.00;67.50
39899;DHT22;25571;47.876;10.642;2023-03-20T14:23:37;14.90;66.00
39899;DHT22;25571;47.876;10.642;2023-03-20T14:26:18;15.00;66.30
39899;DHT22;25571;47.876;10.642;2023-03-20T14:28:53;15.10;66.00
39899;DHT22;25571;47.876;10.642;2023-03-20T14:31:30;15.00;66.50
39899;DHT22;25571;47.876;10.642;2023-03-20T14:34:22;15.00;66.20
39899;DHT22;25571;47.876;10.642;2023-03-20T14:37:04;15.00;66.30
39899;DHT22;25571;47.876;10.642;2023-03-20T14:40:00;15.10;66.90
39899;DHT22;25571;47.876;10.642;2023-03-20T14:43:24;15.00;67.60
39899;DHT22;25571;47.876;10.642;2023-03-20T14:49:01;14.90;69.20
39899;DHT22;25571;47.876;10.642;2023-03-20T14:51:45;14.90;70.30
39899;DHT22;25571;47.876;10.642;2023-03-20T14:54:38;15.00;70.60
39899;DHT22;25571;47.876;10.642;2023-03-20T14:57:15;14.80;70.10
39899;DHT22;25571;47.876;10.642;2023-03-20T14:59:41;14.80;70.50
39899;DHT22;25571;47.876;10.642;2023-03-20T15:02:29;14.70;69.30
39899;DHT22;25571;47.876;10.642;2023-03-20T15:04:58;14.50;70.00
39899;DHT22;25571;47.876;10.642;2023-03-20T15:07:27;14.50;70.30
39899;DHT22;25571;47.876;10.642;2023-03-20T15:09:55;14.50;71.00
39899;DHT22;25571;47.876;10.642;2023-03-20T15:12:26;14.50;71.00
39899;DHT22;25571;47.876;10.642;2023-03-20T15:14:58;14.50;70.60
39899;DHT22;25571;47.876;10.642;2023-03-20T15:17:27;14.50;70.30
39899;DHT22;25571;47.876;10.642;2023-03-20T15:22:53;14.50;70.30
39899;DHT22;25571;47.876;10.642;2023-03-20T15:25:21;14.50;69.90
39899;DHT22;25571;47.876;10.642;2023-03-20T15:27:48;14.60;71.60
39899;DHT22;25571;47.876;10.642;2023-03-20T15:30:16;14.50;71.50
39899;DHT22;25571;47.876;10.642;2023-03-20T15:32:42;14.50;72.50
39899;DHT22;25571;47.876;10.642;2023-03-20T15:35:15;14.60;71.80
39899;DHT22;25571;47.876;10.642;2023-03-20T15:37:43;14.50;72.50
39899;DHT22;25571;47.876;10.642;2023-03-20T15:42:57;14.20;72.20
39899;DHT22;25571;47.876;10.642;2023-03-20T15:45:34;14.00;72.80
39899;DHT22;25571;47.876;10.642;2023-03-20T15:48:03;14.00;71.60
39899;DHT22;25571;47.876;10.642;2023-03-20T15:50:37;13.90;72.00
39899;DHT22;25571;47.876;10.642;2023-03-20T15:53:05;13.80;72.00
39899;DHT22;25571;47.876;10.642;2023-03-20T15:55:31;13.70;73.60
39899;DHT22;25571;47.876;10.642;2023-03-20T15:58:00;13.60;73.20
39899;DHT22;25571;47.876;10.642;2023-03-20T16:00:29;13.60;73.30
39899;DHT22;25571;47.876;10.642;2023-03-20T16:02:58;13.50;73.10
39899;DHT22;25571;47.876;10.642;2023-03-20T16:05:27;13.40;74.30
39899;DHT22;25571;47.876;10.642;2023-03-20T16:07:54;13.20;74.70
39899;DHT22;25571;47.876;10.642;2023-03-20T16:10:32;13.20;74.70
39899;DHT22;25571;47.876;10.642;2023-03-20T16:13:03;13.10;75.10
39899;DHT22;25571;47.876;10.642;2023-03-20T16:15:30;13.10;75.50
39899;DHT22;25571;47.876;10.642;2023-03-20T16:17:59;12.90;76.20
39899;DHT22;25571;47.876;10.642;2023-03-20T16:20:27;12.90;76.10
39899;DHT22;25571;47.876;10.642;2023-03-20T16:22:58;12.80;76.60
39899;DHT22;25571;47.876;10.642;2023-03-20T16:25:25;12.80;78.10
39899;DHT22;25571;47.876;10.642;2023-03-20T16:27:51;12.70;76.90
39899;DHT22;25571;47.876;10.642;2023-03-20T16:30:22;12.60;77.30
39899;DHT22;25571;47.876;10.642;2023-03-20T16:32:54;12.50;77.60
39899;DHT22;25571;47.876;10.642;2023-03-20T16:35:31;12.50;77.80
39899;DHT22;25571;47.876;10.642;2023-03-20T16:38:00;12.40;77.60
39899;DHT22;25571;47.876;10.642;2023-03-20T16:42:52;12.30;77.70
39899;DHT22;25571;47.876;10.642;2023-03-20T16:45:26;12.30;78.10
39899;DHT22;25571;47.876;10.642;2023-03-20T16:50:43;12.20;78.60
39899;DHT22;25571;47.876;10.642;2023-03-20T16:53:17;12.10;78.30
39899;DHT22;25571;47.876;10.642;2023-03-20T16:55:50;12.00;78.80
39899;DHT22;25571;47.876;10.642;2023-03-20T16:58:19;12.00;79.10
39899;DHT22;25571;47.876;10.642;2023-03-20T17:01:01;11.90;79.60
39899;DHT22;25571;47.876;10.642;2023-03-20T17:03:33;11.90;79.40
39899;DHT22;25571;47.876;10.642;2023-03-20T17:06:30;11.90;79.50
39899;DHT22;25571;47.876;10.642;2023-03-20T17:09:09;11.90;79.40
39899;DHT22;25571;47.876;10.642;2023-03-20T17:11:45;11.70;80.30
39899;DHT22;25571;47.876;10.642;2023-03-20T17:14:11;11.60;80.40
39899;DHT22;25571;47.876;10.642;2023-03-20T17:16:37;11.60;81.00
39899;DHT22;25571;47.876;10.642;2023-03-20T17:21:32;11.50;81.90
39899;DHT22;25571;47.876;10.642;2023-03-20T17:23:58;11.40;82.20
39899;DHT22;25571;47.876;10.642;2023-03-20T17:26:23;11.40;82.50
39899;DHT22;25571;47.876;10.642;2023-03-20T17:28:50;11.20;83.40
39899;DHT22;25571;47.876;10.642;2023-03-20T17:31:16;11.20;83.70
39899;DHT22;25571;47.876;10.642;2023-03-20T17:33:43;11.10;83.90
39899;DHT22;25571;47.876;10.642;2023-03-20T17:36:21;11.10;84.70
39899;DHT22;25571;47.876;10.642;2023-03-20T17:38:47;11.00;84.90
39899;DHT22;25571;47.876;10.642;2023-03-20T17:41:14;11.00;84.90
39899;DHT22;25571;47.876;10.642;2023-03-20T17:43:40;10.90;85.30
39899;DHT22;25571;47.876;10.642;2023-03-20T17:46:14;10.80;85.90
39899;DHT22;25571;47.876;10.642;2023-03-20T17:48:41;10.60;86.40
39899;DHT22;25571;47.876;10.642;2023-03-20T17:51:07;10.60;86.40
39899;DHT22;25571;47.876;10.642;2023-03-20T17:53:33;10.50;86.40
39899;DHT22;25571;47.876;10.642;2023-03-20T17:55:59;10.50;87.20